Time;durP1;ratioP1;P1;durP2;ratioP2;P2;SDS_P1;SDS_P2;PMS_P1;PMS_P2;Temp;Humidity;BMP_temperature;BMP_pressure;BME280_temperature;BME280_humidity;BME280_pressure;Samples;Min_cycle;Max_cycle;Signal;HPM_P1;HPM_P2
2023/06/22 00:01:40;;;;;;;6.50;5.90;;;;;;;20.68;70.07;101151.13;105332;1285;69893;-88
2023/06/22 00:04:27;;;;;;;6.20;5.70;;;;;;;20.65;70.03;101151.46;105396;1285;72097;-88
2023/06/22 00:07:13;;;;;;;7.00;6.30;;;;;;;20.63;70.01;101155.26;105315;1286;59589;-88
2023/06/22 00:09:59;;;;;;;6.00;5.50;;;;;;;20.59;69.98;101153.30;105413;1285;59280;-88
2023/06/22 00:12:45;;;;;;;5.20;4.80;;;;;;;20.52;70.08;101152.45;105398;1285;74549;-87
2023/06/22 00:15:32;;;;;;;4.90;4.60;;;;;;;20.49;70.01;101155.89;105479;1288;69381;-87
2023/06/22 00:18:18;;;;;;;;;;;;;;;20.48;70.07;101158.21;104782;1294;583914;-87
2023/06/22 00:21:04;;;;;;;;;;;;;;;20.47;70.04;101163.51;105515;1285;61391;-87
2023/06/22 00:23:50;;;;;;;4.00;3.70;;;;;;;20.43;69.97;101161.10;105474;1285;59263;-88
2023/06/22 00:26:36;;;;;;;5.50;4.20;;;;;;;20.40;70.07;101166.48;105390;1285;73078;-87
2023/06/22 00:29:22;;;;;;;9.90;4.90;;;;;;;20.38;70.06;101172.70;105428;1285;67180;-87
2023/06/22 00:32:08;;;;;;;5.20;4.80;;;;;;;20.35;70.02;101179.86;105358;1285;73274;-87
2023/06/22 00:34:55;;;;;;;6.10;5.70;;;;;;;20.32;70.14;101181.23;105548;1285;61075;-87
2023/06/22 00:37:42;;;;;;;4.80;4.40;;;;;;;20.29;70.03;101182.55;105340;1286;61657;-87
2023/06/22 00:40:29;;;;;;;6.90;5.20;;;;;;;20.24;69.79;101187.05;105418;1285;74662;-88
2023/06/22 00:43:15;;;;;;;4.80;4.40;;;;;;;20.17;70.15;101180.38;105524;1286;67887;-88
2023/06/22 00:46:02;;;;;;;5.80;5.20;;;;;;;20.12;70.03;101181.66;105480;1285;72532;-88
2023/06/22 00:48:48;;;;;;;5.80;5.30;;;;;;;20.10;70.20;101182.63;105278;1285;61057;-88
2023/06/22 00:51:37;;;;;;;8.20;7.20;;;;;;;20.10;70.19;101181.05;105331;1287;59618;-87
2023/06/22 00:54:24;;;;;;;11.50;7.60;;;;;;;20.09;70.14;101181.29;105565;1285;75646;-87
2023/06/22 00:57:15;;;;;;;6.80;6.20;;;;;;;20.04;70.32;101184.30;105505;1285;68380;-87
2023/06/22 01:00:08;;;;;;;5.40;5.00;;;;;;;19.99;70.29;101182.43;105322;1288;70339;-87
2023/06/22 01:02:55;;;;;;;6.70;6.20;;;;;;;19.93;70.17;101178.70;105553;1285;61062;-88
2023/06/22 01:05:41;;;;;;;6.00;5.60;;;;;;;19.89;70.34;101183.06;105513;1286;59224;-87
2023/06/22 01:08:38;;;;;;;6.00;5.10;;;;;;;19.87;70.27;101185.64;105457;1286;73756;-88
2023/06/22 01:11:32;;;;;;;4.80;4.50;;;;;;;19.80;70.28;101185.77;105650;1285;67776;-87
2023/06/22 01:14:28;;;;;;;7.80;6.90;;;;;;;19.72;70.27;101186.48;105512;1285;71425;-87
2023/06/22 01:17:16;;;;;;;6.60;6.10;;;;;;;19.65;70.37;101190.14;105639;1286;61276;-87
2023/06/22 01:20:06;;;;;;;35.10;8.80;;;;;;;19.60;70.33;101188.45;105576;1285;59103;-88
2023/06/22 01:23:25;;;;;;;21.40;8.10;;;;;;;19.57;70.42;101194.33;105482;1285;73335;-87
2023/06/22 01:26:21;;;;;;;8.30;7.40;;;;;;;19.52;70.36;101186.67;105390;1285;67528;-88
2023/06/22 01:29:11;;;;;;;14.40;7.80;;;;;;;19.49;70.53;101192.21;105484;1285;73989;-87
2023/06/22 01:31:59;;;;;;;27.20;8.40;;;;;;;19.48;70.64;101199.77;105576;1285;61202;-87
2023/06/22 01:34:47;;;;;;;68.80;9.10;;;;;;;19.47;70.62;101197.21;105521;1285;61030;-87
2023/06/22 01:37:36;;;;;;;11.50;7.60;;;;;;;19.45;70.72;101200.27;105403;1286;73278;-87
2023/06/22 01:40:24;;;;;;;9.00;8.30;;;;;;;19.44;70.73;101201.00;105502;1286;69268;-87
2023/06/22 01:43:10;;;;;;;8.40;7.70;;;;;;;19.43;70.79;101207.14;105383;1285;71249;-87
2023/06/22 01:45:58;;;;;;;7.90;7.20;;;;;;;19.41;70.67;101210.91;105266;1285;266042;-87
2023/06/22 01:48:44;;;;;;;8.90;8.20;;;;;;;19.40;70.82;101212.36;105518;1285;61215;-87
2023/06/22 01:51:30;;;;;;;7.70;7.10;;;;;;;19.42;70.73;101212.09;105600;1285;73836;-87
2023/06/22 01:54:17;;;;;;;6.90;6.20;;;;;;;19.39;70.79;101208.73;105407;1290;68319;-87
2023/06/22 01:57:03;;;;;;;6.90;6.40;;;;;;;19.35;70.76;101209.42;105413;1286;71255;-87
2023/06/22 02:00:00;;;;;;;;;;;;;;;19.30;70.75;101203.19;105461;1285;61165;-87
2023/06/22 02:02:56;;;;;;;5.70;5.30;;;;;;;19.22;70.71;101201.44;105551;1286;61371;-87
2023/06/22 02:05:49;;;;;;;6.70;5.00;;;;;;;19.18;70.62;101207.02;105348;1288;74042;-87
2023/06/22 02:08:49;;;;;;;6.70;6.20;;;;;;;19.17;70.72;101211.45;105432;1286;67240;-88
2023/06/22 02:11:37;;;;;;;8.30;6.70;;;;;;;19.16;70.64;101212.71;105384;1285;71468;-87
2023/06/22 02:14:24;;;;;;;6.70;6.30;;;;;;;19.12;70.58;101210.40;105517;1285;61241;-87
2023/06/22 02:17:11;;;;;;;5.70;5.30;;;;;;;19.08;70.65;101220.75;105360;1288;61090;-87
2023/06/22 02:19:58;;;;;;;8.50;7.80;;;;;;;19.03;70.54;101217.09;105533;1286;74289;-87
2023/06/22 02:22:44;;;;;;;7.30;6.60;;;;;;;19.00;70.70;101222.12;105258;1285;67199;-87
2023/06/22 02:25:31;;;;;;;7.10;5.20;;;;;;;18.95;70.68;101229.84;105369;1293;72150;-87
2023/06/22 02:28:17;;;;;;;10.90;10.00;;;;;;;18.90;70.62;101233.56;105502;1286;61260;-87
2023/06/22 02:31:03;;;;;;;11.50;10.40;;;;;;;18.84;70.76;101241.28;105344;1285;62103;-87
2023/06/22 02:33:50;;;;;;;14.50;11.10;;;;;;;18.82;70.92;101245.40;105379;1285;74162;-87
2023/06/22 02:36:36;;;;;;;12.40;11.30;;;;;;;18.82;70.91;101252.38;105214;1285;68145;-87
2023/06/22 02:39:24;;;;;;;11.90;10.60;;;;;;;18.82;70.91;101253.58;105341;1285;71727;-87
2023/06/22 02:42:10;;;;;;;12.80;11.60;;;;;;;18.82;70.86;101260.08;105490;1286;59157;-87
2023/06/22 02:44:56;;;;;;;12.00;10.80;;;;;;;18.81;70.96;101258.85;105387;1285;63315;-87
2023/06/22 02:47:43;;;;;;;12.50;11.40;;;;;;;18.84;70.94;101258.05;105389;1286;73313;-87
2023/06/22 02:50:29;;;;;;;14.60;13.20;;;;;;;18.87;70.98;101256.38;105310;1285;67323;-87
2023/06/22 02:53:15;;;;;;;14.90;13.30;;;;;;;18.86;71.03;101257.27;105142;1285;71714;-87
2023/06/22 02:56:05;;;;;;;15.70;14.00;;;;;;;18.86;71.04;101256.74;105343;1285;61391;-87
2023/06/22 02:58:51;;;;;;;12.90;11.70;;;;;;;18.88;71.19;101258.10;105316;1285;61289;-87
2023/06/22 03:01:39;;;;;;;13.70;12.40;;;;;;;18.89;71.19;101259.09;105268;1286;75083;-87
2023/06/22 03:04:26;;;;;;;13.40;12.20;;;;;;;18.89;71.22;101257.70;105450;1287;66244;-87
2023/06/22 03:07:12;;;;;;;13.10;11.80;;;;;;;18.91;71.17;101258.48;105271;1285;71192;-87
2023/06/22 03:09:58;;;;;;;12.70;11.60;;;;;;;18.90;71.11;101260.60;105298;1285;61170;-87
2023/06/22 03:12:44;;;;;;;12.90;11.70;;;;;;;18.88;71.20;101267.52;105383;1285;61108;-87
2023/06/22 03:15:32;;;;;;;12.40;11.00;;;;;;;18.88;71.31;101271.89;105377;1285;73133;-87
2023/06/22 03:18:18;;;;;;;11.70;10.70;;;;;;;18.88;71.19;101270.66;105351;1285;68145;-87
2023/06/22 03:21:05;;;;;;;14.60;10.40;;;;;;;18.91;71.38;101271.59;105411;1285;72170;-87
2023/06/22 03:23:51;;;;;;;11.90;10.70;;;;;;;18.93;71.36;101268.01;105262;1285;60693;-87
2023/06/22 03:26:37;;;;;;;11.30;10.20;;;;;;;18.96;71.29;101267.52;105409;1285;61202;-87
2023/06/22 03:29:25;;;;;;;13.40;12.20;;;;;;;18.98;71.49;101263.95;105514;1286;74482;-88
2023/06/22 03:32:11;;;;;;;12.10;10.50;;;;;;;18.99;71.41;101262.16;105342;1285;67531;-88
2023/06/22 03:34:58;;;;;;;14.20;10.70;;;;;;;19.01;71.45;101260.16;105515;1285;71206;-88
2023/06/22 03:37:44;;;;;;;11.80;10.20;;;;;;;19.02;71.49;101261.33;105454;1285;61414;-87
2023/06/22 03:40:31;;;;;;;13.60;10.90;;;;;;;19.04;71.52;101260.04;105509;1285;59527;-88
2023/06/22 03:43:17;;;;;;;11.00;10.10;;;;;;;19.06;71.55;101260.65;105312;1285;76079;-88
2023/06/22 03:46:03;;;;;;;11.80;10.60;;;;;;;19.10;71.49;101266.07;105245;1285;70102;-88
2023/06/22 03:48:49;;;;;;;10.30;9.30;;;;;;;19.14;71.59;101265.56;105202;1286;71652;-88
2023/06/22 03:51:36;;;;;;;9.80;9.00;;;;;;;19.16;71.68;101267.05;105394;1285;61154;-88
2023/06/22 03:54:22;;;;;;;11.10;9.50;;;;;;;19.19;71.44;101266.77;105300;1285;61730;-88
2023/06/22 03:57:08;;;;;;;9.90;8.90;;;;;;;19.22;71.58;101275.55;105524;1286;73181;-87
2023/06/22 03:59:56;;;;;;;10.60;9.30;;;;;;;19.26;71.53;101282.89;105289;1286;67186;-88
2023/06/22 04:02:43;;;;;;;10.30;9.00;;;;;;;19.29;71.51;101279.41;105304;1285;72515;-87
2023/06/22 04:05:29;;;;;;;10.30;9.30;;;;;;;19.31;71.65;101288.27;105170;1288;61331;-88
2023/06/22 04:08:15;;;;;;;9.40;8.40;;;;;;;19.36;71.61;101289.13;105362;1285;59778;-88
2023/06/22 04:11:01;;;;;;;;;;;;;;;19.44;71.73;101291.04;105513;1285;73411;-88
2023/06/22 04:13:49;;;;;;;;;;;;;;;19.57;71.70;101293.16;105517;1285;67812;-87
2023/06/22 04:16:35;;;;;;;10.10;6.90;;;;;;;19.67;71.65;101297.25;105469;1285;72517;-88
2023/06/22 04:19:21;;;;;;;10.50;7.50;;;;;;;19.75;71.61;101298.65;105377;1286;61089;-87
2023/06/22 04:22:07;;;;;;;8.50;7.30;;;;;;;19.82;71.56;101302.02;105348;1286;61144;-87
2023/06/22 04:24:53;;;;;;;14.20;8.70;;;;;;;19.94;71.66;101304.13;105362;1285;76380;-88
2023/06/22 04:27:42;;;;;;;10.70;7.10;;;;;;;20.10;71.60;101304.99;105332;1285;71368;-88
2023/06/22 04:30:31;;;;;;;7.90;7.20;;;;;;;20.28;71.54;101296.63;105447;1289;71349;-87
2023/06/22 04:33:17;;;;;;;10.00;7.00;;;;;;;20.39;71.35;101297.89;105287;1285;61191;-87
2023/06/22 04:36:03;;;;;;;7.20;6.50;;;;;;;20.42;71.37;101305.98;105328;1286;59388;-87
2023/06/22 04:38:52;;;;;;;6.20;5.70;;;;;;;20.46;71.45;101306.33;105381;1285;74215;-87
2023/06/22 04:41:42;;;;;;;10.00;5.80;;;;;;;20.51;71.46;101304.89;105345;1285;68667;-86
2023/06/22 04:44:29;;;;;;;8.30;5.80;;;;;;;20.59;71.44;101309.23;105397;1285;72511;-87
2023/06/22 04:47:15;;;;;;;6.80;5.30;;;;;;;20.65;71.34;101313.02;105281;1285;61292;-87
2023/06/22 04:50:05;;;;;;;6.80;4.90;;;;;;;20.68;71.36;101311.27;105415;1285;61260;-87
2023/06/22 04:52:51;;;;;;;7.90;5.10;;;;;;;20.78;71.21;101311.30;105231;1288;73297;-88
2023/06/22 04:55:41;;;;;;;6.70;5.20;;;;;;;20.87;71.29;101311.75;105411;1285;69243;-87
2023/06/22 04:58:28;;;;;;;10.30;4.50;;;;;;;21.08;71.30;101319.31;105427;1285;72330;-86
2023/06/22 05:01:14;;;;;;;12.60;4.40;;;;;;;21.34;71.29;101319.28;105490;1290;61183;-86
2023/06/22 05:04:03;;;;;;;7.10;5.30;;;;;;;21.72;71.08;101314.37;105464;1288;61276;-86
2023/06/22 05:06:50;;;;;;;5.70;3.80;;;;;;;22.16;70.88;101316.46;105516;1285;74168;-86
2023/06/22 05:09:36;;;;;;;5.40;3.80;;;;;;;22.59;70.59;101315.33;105343;1285;72249;-87
2023/06/22 05:12:23;;;;;;;8.20;4.40;;;;;;;23.02;70.30;101310.50;105489;1286;71988;-87
2023/06/22 05:15:09;;;;;;;8.70;3.70;;;;;;;23.44;70.09;101310.15;105253;1285;59409;-87
2023/06/22 05:17:55;;;;;;;;;;;;;;;23.85;69.98;101309.09;105319;1285;59498;-86
2023/06/22 05:20:42;;;;;;;9.30;3.70;;;;;;;24.24;69.71;101304.94;105472;1285;73342;-86
2023/06/22 05:23:28;;;;;;;7.20;4.10;;;;;;;24.62;69.38;101313.27;105295;1285;68282;-86
2023/06/22 05:26:14;;;;;;;6.90;3.90;;;;;;;24.95;69.00;101304.31;105322;1285;71236;-86
2023/06/22 05:29:02;;;;;;;5.00;3.50;;;;;;;25.27;68.87;101307.96;105219;1289;61137;-86
2023/06/22 05:31:49;;;;;;;5.70;3.80;;;;;;;25.60;68.55;101302.90;105306;1286;61793;-86
2023/06/22 05:34:35;;;;;;;5.80;3.50;;;;;;;25.95;68.50;101297.90;105949;1285;73230;-86
2023/06/22 05:37:21;;;;;;;5.40;3.60;;;;;;;26.27;68.17;101295.23;105447;1290;67801;-87
2023/06/22 05:40:09;;;;;;;9.70;2.90;;;;;;;26.60;67.92;101297.97;105235;1285;71199;-87
2023/06/22 05:42:55;;;;;;;12.50;3.60;;;;;;;26.90;67.41;101295.80;105326;1289;61317;-87
2023/06/22 05:45:42;;;;;;;7.30;3.20;;;;;;;27.23;67.51;101300.96;105224;1288;61269;-87
2023/06/22 05:48:28;;;;;;;6.00;3.10;;;;;;;27.52;67.17;101304.21;105331;1285;74962;-87
2023/06/22 05:51:14;;;;;;;7.60;3.50;;;;;;;27.70;66.89;101304.97;105320;1286;67237;-87
2023/06/22 05:54:00;;;;;;;5.80;2.80;;;;;;;27.84;66.32;101316.44;105353;1285;71466;-87
2023/06/22 05:56:46;;;;;;;;;;;;;;;28.10;65.81;101323.80;105281;1294;61353;-87
2023/06/22 05:59:32;;;;;;;5.00;3.10;;;;;;;28.44;65.53;101324.19;105328;1285;61143;-87
2023/06/22 06:02:19;;;;;;;3.90;2.80;;;;;;;28.78;65.24;101316.42;105221;1285;77329;-87
2023/06/22 06:05:07;;;;;;;5.50;2.80;;;;;;;28.94;64.67;101307.64;105260;1289;67451;-88
2023/06/22 06:07:53;;;;;;;5.20;2.80;;;;;;;28.94;64.63;101307.62;105378;1286;72390;-87
2023/06/22 06:10:39;;;;;;;6.90;3.00;;;;;;;29.14;64.29;101318.42;105311;1285;61101;-87
2023/06/22 06:13:25;;;;;;;3.90;2.80;;;;;;;29.32;63.67;101315.45;105233;1288;61640;-87
2023/06/22 06:16:11;;;;;;;4.70;2.40;;;;;;;29.43;63.21;101312.97;105150;1291;75549;-88
2023/06/22 06:18:58;;;;;;;6.60;2.40;;;;;;;29.63;62.72;101324.02;105328;1287;68020;-87
2023/06/22 06:21:44;;;;;;;3.30;2.40;;;;;;;29.71;62.42;101330.09;105355;1288;71415;-87
2023/06/22 06:24:30;;;;;;;5.40;2.50;;;;;;;29.95;61.95;101332.70;105295;1286;59375;-88
2023/06/22 06:27:19;;;;;;;6.20;2.40;;;;;;;30.25;61.48;101326.98;105483;1286;61179;-87
2023/06/22 06:30:07;;;;;;;3.50;2.30;;;;;;;30.65;61.19;101331.46;105327;1288;76119;-88
2023/06/22 06:32:54;;;;;;;4.80;2.50;;;;;;;31.10;60.20;101336.36;105420;1285;71528;-89
2023/06/22 06:35:40;;;;;;;;;;;;;;;31.55;59.54;101329.46;105346;1286;73371;-88
2023/06/22 06:38:28;;;;;;;4.00;2.40;;;;;;;32.04;59.16;101324.61;105318;1289;61154;-89
2023/06/22 06:41:21;;;;;;;3.80;2.10;;;;;;;32.61;58.50;101330.88;105441;1288;61314;-89
2023/06/22 06:44:15;;;;;;;10.70;2.90;;;;;;;33.20;58.10;101328.64;105700;1286;73396;-89
2023/06/22 06:47:10;;;;;;;4.40;2.90;;;;;;;33.86;57.27;101333.14;105610;1287;67773;-88
2023/06/22 06:49:58;;;;;;;3.10;2.70;;;;;;;34.38;56.64;101335.51;105327;1285;72625;-89
2023/06/22 06:53:08;;;;;;;7.20;2.70;;;;;;;34.88;56.04;101334.27;105345;1285;59207;-89
2023/06/22 06:56:05;;;;;;;4.30;2.90;;;;;;;35.32;55.75;101332.58;105198;1291;59659;-89
2023/06/22 06:59:06;;;;;;;6.30;2.50;;;;;;;35.59;55.30;101338.48;105420;1286;74266;-89
2023/06/22 07:01:54;;;;;;;3.60;2.80;;;;;;;35.84;54.34;101339.15;105528;1291;68479;-88
2023/06/22 07:04:41;;;;;;;4.90;3.20;;;;;;;35.77;54.03;101336.08;105454;1285;72151;-89
2023/06/22 07:07:29;;;;;;;4.70;2.60;;;;;;;35.93;53.66;101338.27;105462;1285;59435;-89
2023/06/22 07:10:15;;;;;;;4.20;2.40;;;;;;;36.17;52.21;101344.52;105623;1285;61135;-89
2023/06/22 07:13:12;;;;;;;4.20;2.40;;;;;;;36.58;51.31;101343.77;105385;1285;73192;-89
2023/06/22 07:27:07;;;;;;;2.60;1.90;;;;;;;38.54;47.54;101340.36;105542;1286;61259;-88
2023/06/22 07:30:13;;;;;;;2.90;2.00;;;;;;;37.66;47.61;101335.86;105258;1291;73745;-88
2023/06/22 07:33:03;;;;;;;3.50;1.90;;;;;;;37.38;47.64;101337.11;105343;1285;67800;-88
2023/06/22 07:35:52;;;;;;;2.70;2.20;;;;;;;37.80;46.57;101338.36;106393;1286;71357;-88
2023/06/22 07:38:40;;;;;;;3.00;2.10;;;;;;;37.37;45.92;101335.80;106328;1285;59383;-87
2023/06/22 07:41:27;;;;;;;3.20;2.20;;;;;;;36.99;45.70;101334.83;106205;1285;60043;-87
2023/06/22 07:44:13;;;;;;;3.30;2.30;;;;;;;36.63;45.11;101333.91;106094;1285;75092;-88
2023/06/22 07:47:00;;;;;;;2.10;2.00;;;;;;;37.57;44.59;101325.66;106223;1285;67426;-87
2023/06/22 07:49:46;;;;;;;2.90;2.70;;;;;;;39.30;43.06;101324.30;106142;1285;71704;-87
2023/06/22 07:52:32;;;;;;;3.10;2.30;;;;;;;40.57;42.10;101328.15;106268;1285;59100;-87
2023/06/22 07:55:18;;;;;;;3.00;2.60;;;;;;;41.69;41.18;101328.03;106285;1286;59259;-87
2023/06/22 07:58:04;;;;;;;3.40;3.10;;;;;;;42.67;40.41;101319.55;106230;1286;73139;-87
2023/06/22 08:00:53;;;;;;;3.90;2.90;;;;;;;43.69;40.16;101312.81;106239;1285;67023;-86
2023/06/22 08:03:39;;;;;;;3.00;2.70;;;;;;;44.62;39.44;101317.78;106107;1286;71518;-85
2023/06/22 08:06:25;;;;;;;3.00;2.80;;;;;;;45.49;38.94;101317.02;106093;1288;59321;-85
2023/06/22 08:09:12;;;;;;;3.90;2.90;;;;;;;46.31;38.02;101308.44;106262;1285;59063;-85
2023/06/22 08:11:59;;;;;;;3.50;3.30;;;;;;;46.67;37.07;101306.34;106275;1285;67379;-85
2023/06/22 08:14:45;;;;;;;3.50;3.30;;;;;;;46.88;36.56;101308.27;106121;1285;60482;-86
2023/06/22 08:17:31;;;;;;;4.20;3.90;;;;;;;47.31;35.87;101317.73;106237;1286;63686;-85
2023/06/22 08:20:17;;;;;;;4.80;4.00;;;;;;;47.70;34.91;101323.86;106323;1290;59316;-85
2023/06/22 08:23:06;;;;;;;3.80;3.50;;;;;;;47.95;33.90;101322.16;106286;1294;58869;-86
2023/06/22 08:25:52;;;;;;;7.10;5.20;;;;;;;47.98;32.73;101320.27;106063;1286;66002;-85
2023/06/22 08:28:38;;;;;;;4.50;4.00;;;;;;;48.23;31.85;101320.73;105520;1291;60977;-85
2023/06/22 08:31:24;;;;;;;4.70;4.30;;;;;;;48.74;31.17;101322.02;105471;1286;62745;-85
2023/06/22 08:34:10;;;;;;;4.90;4.40;;;;;;;49.17;30.25;101316.08;105434;1286;61064;-85
2023/06/22 08:36:56;;;;;;;4.50;4.10;;;;;;;49.52;29.41;101311.23;105237;1286;59085;-85
2023/06/22 08:39:43;;;;;;;5.50;4.20;;;;;;;49.58;28.74;101313.86;105552;1285;65099;-85
2023/06/22 08:42:29;;;;;;;4.70;4.40;;;;;;;49.78;27.92;101310.11;105427;1285;59261;-85
2023/06/22 08:45:15;;;;;;;4.70;4.50;;;;;;;49.94;27.07;101308.80;105386;1286;63839;-85
2023/06/22 08:48:02;;;;;;;5.20;4.40;;;;;;;49.93;26.40;101307.48;105331;1289;61122;-85
2023/06/22 08:50:48;;;;;;;5.40;4.00;;;;;;;49.88;25.67;101311.59;105414;1286;59296;-85
2023/06/22 08:53:34;;;;;;;4.90;4.50;;;;;;;49.95;25.32;101309.91;105612;1286;66538;-85
2023/06/22 08:56:21;;;;;;;4.60;4.20;;;;;;;50.02;24.71;101307.95;105421;1286;62475;-85
2023/06/22 08:59:07;;;;;;;4.50;4.30;;;;;;;49.94;23.98;101311.98;105320;1285;63767;-85
2023/06/22 09:01:53;;;;;;;5.50;4.00;;;;;;;48.92;23.17;101316.52;105436;1286;61183;-85
2023/06/22 09:04:39;;;;;;;4.20;3.70;;;;;;;45.96;22.48;101311.21;105478;1287;59723;-85
2023/06/22 09:07:26;;;;;;;3.90;3.60;;;;;;;42.77;22.42;101297.02;105502;1288;73239;-84
2023/06/22 09:10:12;;;;;;;3.00;2.80;;;;;;;40.57;22.30;101286.27;105403;1289;67229;-85
2023/06/22 09:12:58;;;;;;;4.50;2.70;;;;;;;38.81;22.68;101275.75;105337;1286;72531;-84
2023/06/22 09:15:44;;;;;;;3.50;2.40;;;;;;;37.61;22.92;101271.65;105357;1287;61153;-86
2023/06/22 09:18:30;;;;;;;2.30;2.10;;;;;;;36.45;22.86;101266.08;105602;1286;59261;-86
2023/06/22 09:21:16;;;;;;;2.40;2.00;;;;;;;35.49;22.92;101257.31;105589;1286;74478;-86
2023/06/22 09:24:03;;;;;;;2.20;1.90;;;;;;;34.60;22.86;101253.11;105446;1285;68077;-86
2023/06/22 09:26:49;;;;;;;3.60;2.20;;;;;;;33.85;22.97;101253.91;105324;1286;71982;-86
2023/06/22 09:29:35;;;;;;;4.90;2.30;;;;;;;33.17;23.39;101249.38;105354;1285;61148;-86
2023/06/22 09:32:21;;;;;;;4.20;2.20;;;;;;;32.59;23.64;101247.20;105383;1287;61190;-86
2023/06/22 09:35:09;;;;;;;4.10;2.20;;;;;;;32.00;23.98;101243.54;105257;1287;74037;-86
2023/06/22 09:37:55;;;;;;;2.30;2.10;;;;;;;31.61;24.41;101248.36;105403;1289;67169;-86
2023/06/22 09:40:42;;;;;;;5.90;2.50;;;;;;;31.32;24.60;101245.95;105353;1289;72067;-86
2023/06/22 09:43:28;;;;;;;3.40;2.60;;;;;;;30.88;24.82;101243.05;105364;1286;59554;-86
2023/06/22 09:46:17;;;;;;;3.00;2.40;;;;;;;30.51;25.21;101234.56;105429;1286;61176;-86
2023/06/22 09:49:04;;;;;;;2.80;2.10;;;;;;;30.19;25.20;101237.55;105412;1291;73432;-86
2023/06/22 09:51:52;;;;;;;5.10;2.40;;;;;;;29.83;25.64;101240.60;105396;1285;67463;-86
2023/06/22 09:55:19;;;;;;;;;;;;;;;;;;;;;
2023/06/22 09:57:57;;;;;;;5.20;2.50;;;;;;;29.38;26.37;101240.20;104978;1291;61177;-85
2023/06/22 10:00:56;;;;;;;2.80;2.20;;;;;;;29.20;26.69;101240.12;105086;1296;61267;-85
2023/06/22 10:03:48;;;;;;;3.10;2.70;;;;;;;29.08;26.95;101239.73;104833;1292;74603;-85
2023/06/22 10:07:04;;;;;;;3.30;2.20;;;;;;;28.91;26.95;101244.21;104932;1291;67962;-85
2023/06/22 10:10:13;;;;;;;;;;;;;;;28.73;27.43;101239.11;105083;1291;71181;-86
2023/06/22 10:13:14;;;;;;;3.10;2.40;;;;;;;28.58;27.75;101239.98;105101;1295;59700;-86
2023/06/22 10:16:36;;;;;;;3.20;2.40;;;;;;;28.46;28.01;101235.68;105041;1291;61190;-86
2023/06/22 10:19:47;;;;;;;2.30;2.10;;;;;;;28.29;28.11;101237.75;105008;1297;74922;-84
2023/06/22 10:22:40;;;;;;;6.00;2.60;;;;;;;28.18;28.42;101237.36;104915;1291;68038;-84
2023/06/22 10:25:35;;;;;;;5.10;2.40;;;;;;;28.14;28.74;101228.15;105015;1291;72563;-86
2023/06/22 10:28:22;;;;;;;4.80;2.50;;;;;;;28.11;29.20;101223.44;105309;1288;61262;-85
2023/06/22 10:31:08;;;;;;;3.90;2.20;;;;;;;28.13;29.39;101220.90;105515;1292;61279;-85
2023/06/22 10:33:55;;;;;;;4.40;2.40;;;;;;;28.17;29.59;101223.99;105587;1288;74957;-85
2023/06/22 10:36:41;;;;;;;2.60;2.40;;;;;;;28.15;29.47;101223.59;105421;1286;68393;-85
2023/06/22 10:39:27;;;;;;;2.90;2.20;;;;;;;28.07;29.75;101215.05;105333;1286;72110;-86
2023/06/22 10:42:15;;;;;;;2.90;2.60;;;;;;;28.03;29.84;101214.17;105304;1286;59514;-85
2023/06/22 10:45:05;;;;;;;3.40;2.60;;;;;;;27.98;30.07;101220.02;106240;1286;59326;-86
2023/06/22 10:47:51;;;;;;;3.00;2.40;;;;;;;27.94;30.23;101215.34;106284;1287;73281;-85
2023/06/22 10:50:38;;;;;;;3.50;2.50;;;;;;;27.92;30.55;101217.98;105990;1286;67313;-85
2023/06/22 10:53:24;;;;;;;3.20;2.40;;;;;;;27.93;30.73;101213.53;105456;1286;73020;-85
2023/06/22 10:56:11;;;;;;;2.50;2.20;;;;;;;27.92;30.55;101215.70;105476;1285;61136;-84
2023/06/22 10:58:58;;;;;;;2.50;2.20;;;;;;;27.81;30.85;101213.96;105680;1291;61755;-84
2023/06/22 11:01:44;;;;;;;2.90;2.20;;;;;;;27.75;31.06;101208.42;105325;1287;73375;-84
2023/06/22 11:04:30;;;;;;;5.60;2.90;;;;;;;27.76;31.22;101211.02;105520;1286;67343;-84
2023/06/22 11:07:16;;;;;;;4.30;3.90;;;;;;;27.80;31.44;101209.20;105518;1286;71314;-84
2023/06/22 11:10:03;;;;;;;4.60;2.40;;;;;;;27.85;31.44;101211.86;105540;1286;59223;-84
2023/06/22 11:12:50;;;;;;;6.20;4.10;;;;;;;27.86;31.69;101207.52;105512;1292;60132;-83
2023/06/22 11:15:36;;;;;;;;;;;;;;;27.87;31.70;101208.29;105629;1293;73257;-83
2023/06/22 11:18:23;;;;;;;;;;;;;;;27.85;31.74;101206.02;105601;1292;68674;-84
2023/06/22 11:21:09;;;;;;;3.80;2.40;;;;;;;27.82;31.81;101201.64;105509;1286;72011;-84
2023/06/22 11:23:55;;;;;;;3.40;2.20;;;;;;;27.77;32.00;101203.84;105552;1291;59320;-86
2023/06/22 11:26:42;;;;;;;3.40;2.40;;;;;;;27.74;32.05;101197.85;105190;1287;60157;-86
2023/06/22 11:29:36;;;;;;;2.80;2.60;;;;;;;27.76;32.19;101197.51;105445;1291;77499;-87
2023/06/22 11:32:25;;;;;;;3.30;2.60;;;;;;;27.77;32.02;101184.13;105395;1286;68260;-87
2023/06/22 11:35:16;;;;;;;3.40;1.90;;;;;;;27.73;32.16;101180.23;105510;1292;72996;-87
2023/06/22 11:38:04;;;;;;;2.70;2.50;;;;;;;27.75;32.33;101180.26;106352;1286;59201;-87
2023/06/22 11:40:51;;;;;;;3.20;3.00;;;;;;;27.82;32.49;101179.67;106277;1292;59309;-87
2023/06/22 11:43:37;;;;;;;3.00;2.20;;;;;;;27.89;32.55;101183.34;106155;1285;73182;-84
2023/06/22 11:46:23;;;;;;;3.50;2.50;;;;;;;27.94;32.55;101178.73;106252;1286;68312;-83
2023/06/22 11:49:09;;;;;;;4.50;2.30;;;;;;;27.95;32.55;101179.16;106246;1286;71972;-83
2023/06/22 11:51:55;;;;;;;2.70;2.50;;;;;;;27.99;32.70;101173.52;106201;1286;58431;-83
2023/06/22 11:54:41;;;;;;;2.50;2.30;;;;;;;28.02;32.53;101174.17;106176;1285;59389;-84
2023/06/22 11:57:27;;;;;;;3.00;2.40;;;;;;;28.04;32.62;101172.23;105944;1286;74566;-83
2023/06/22 12:00:17;;;;;;;2.80;2.50;;;;;;;28.08;32.69;101171.52;105385;1286;67368;-83
2023/06/22 12:03:04;;;;;;;2.90;2.10;;;;;;;28.14;32.78;101171.03;105330;1289;72263;-83
2023/06/22 12:05:53;;;;;;;4.10;2.70;;;;;;;28.19;32.76;101169.16;105412;1286;61210;-85
2023/06/22 12:08:39;;;;;;;2.50;2.20;;;;;;;28.21;32.78;101167.27;105362;1286;61753;-83
2023/06/22 12:11:26;;;;;;;2.80;2.30;;;;;;;28.23;32.91;101161.48;105682;1291;76038;-83
2023/06/22 12:14:12;;;;;;;3.20;2.50;;;;;;;28.23;32.85;101161.48;105574;1286;67111;-83
2023/06/22 12:16:58;;;;;;;3.90;2.20;;;;;;;28.24;32.95;101158.02;105489;1286;72591;-82
2023/06/22 12:19:44;;;;;;;3.20;2.90;;;;;;;28.22;32.81;101149.84;105421;1286;61363;-83
2023/06/22 12:22:31;;;;;;;4.00;2.60;;;;;;;28.23;33.11;101144.81;105598;1285;61142;-83
2023/06/22 12:25:17;;;;;;;2.80;2.50;;;;;;;28.29;33.08;101157.44;105567;1286;74579;-83
2023/06/22 12:28:04;;;;;;;3.50;2.70;;;;;;;28.31;33.00;101156.20;105384;1286;67492;-83
2023/06/22 12:30:50;;;;;;;5.10;2.40;;;;;;;28.26;33.03;101155.02;105377;1290;72571;-83
2023/06/22 12:33:36;;;;;;;2.60;2.40;;;;;;;28.24;33.15;101145.05;105682;1285;59269;-83
2023/06/22 12:36:24;;;;;;;2.60;2.40;;;;;;;28.27;33.25;101140.17;105465;1289;59990;-83
2023/06/22 12:39:10;;;;;;;7.70;2.70;;;;;;;28.29;33.16;101140.59;105536;1289;73418;-83
2023/06/22 12:41:56;;;;;;;3.60;2.10;;;;;;;28.25;33.06;101141.58;105662;1286;69589;-83
2023/06/22 12:44:43;;;;;;;2.50;2.30;;;;;;;28.26;33.13;101143.67;105457;1292;71906;-84
2023/06/22 12:47:29;;;;;;;2.90;2.50;;;;;;;28.26;33.27;101139.72;105548;1286;59479;-84
2023/06/22 12:50:16;;;;;;;2.70;2.50;;;;;;;28.22;33.08;101137.98;105496;1291;61209;-84
2023/06/22 12:53:17;;;;;;;4.00;2.70;;;;;;;28.12;33.17;101127.73;105431;1292;74215;-84
2023/06/22 12:56:03;;;;;;;2.50;2.30;;;;;;;28.06;33.28;101127.22;105502;1288;67329;-85
2023/06/22 12:58:50;;;;;;;2.90;2.70;;;;;;;27.99;33.32;101124.05;105395;1286;71186;-85
2023/06/22 13:01:37;;;;;;;2.70;2.50;;;;;;;27.99;33.34;101124.22;105472;1294;59332;-85
2023/06/22 13:04:23;;;;;;;2.50;2.30;;;;;;;28.02;33.36;101124.55;105585;1288;62741;-85
2023/06/22 13:07:10;;;;;;;2.80;2.40;;;;;;;28.06;33.48;101127.42;105386;1286;73372;-85